createdAt,value
2019-05-01T00:01:06.525Z,99.90
2019-05-01T00:03:54.227Z,99.90
2019-05-01T00:06:29.221Z,99.90
2019-05-01T00:08:59.048Z,99.90
2019-05-01T00:11:28.889Z,99.90
2019-05-01T00:13:58.762Z,99.90
2019-05-01T00:16:28.656Z,99.90
2019-05-01T00:18:58.501Z,99.90
2019-05-01T00:21:28.622Z,99.90
2019-05-01T00:23:58.569Z,99.90
2019-05-01T00:26:28.763Z,99.90
2019-05-01T00:28:58.809Z,99.90
2019-05-01T00:31:28.845Z,99.90
2019-05-01T00:33:58.729Z,99.90
2019-05-01T00:36:28.567Z,99.90
2019-05-01T00:38:58.326Z,99.90
2019-05-01T00:41:28.149Z,99.90
2019-05-01T00:43:57.989Z,99.90
2019-05-01T00:46:27.719Z,99.90
2019-05-01T00:48:57.467Z,99.90
2019-05-01T00:51:27.466Z,99.90
2019-05-01T00:53:57.385Z,99.90
2019-05-01T00:56:35.038Z,99.90
2019-05-01T00:59:15.165Z,99.90
2019-05-01T01:02:03.005Z,99.90
2019-05-01T01:04:32.960Z,99.90
2019-05-01T01:07:02.833Z,99.90
2019-05-01T01:09:32.567Z,99.90
2019-05-01T01:12:02.385Z,99.90
2019-05-01T01:14:32.382Z,99.90
2019-05-01T01:17:02.130Z,99.90
2019-05-01T01:19:32.028Z,99.90
2019-05-01T01:22:02.447Z,99.90
2019-05-01T01:24:32.511Z,99.90
2019-05-01T01:27:02.446Z,99.90
2019-05-01T01:29:32.593Z,99.90
2019-05-01T01:32:02.418Z,99.90
2019-05-01T01:34:32.234Z,99.90
2019-05-01T01:37:01.997Z,99.90
2019-05-01T01:39:32.049Z,99.90
2019-05-01T01:42:02.244Z,99.90
2019-05-01T01:44:50.081Z,99.90
2019-05-01T01:47:20.153Z,99.90
2019-05-01T01:49:50.098Z,99.90
2019-05-01T01:52:20.019Z,99.90
2019-05-01T01:54:50.155Z,99.90
2019-05-01T01:57:20.237Z,99.90
2019-05-01T01:59:50.968Z,99.90
2019-05-01T02:02:45.173Z,99.90
2019-05-01T02:05:30.997Z,99.90
2019-05-01T02:08:01.281Z,99.90
2019-05-01T02:10:42.307Z,99.90
2019-05-01T02:13:03.347Z,99.90
2019-05-01T02:15:33.250Z,99.90
2019-05-01T02:18:03.057Z,99.90
2019-05-01T02:20:32.999Z,99.90
2019-05-01T02:23:02.808Z,99.90
2019-05-01T02:25:34.345Z,99.90
2019-05-01T02:28:32.465Z,99.90
2019-05-01T02:31:33.911Z,99.90
2019-05-01T02:34:04.303Z,99.90
2019-05-01T02:36:34.999Z,99.90
2019-05-01T02:39:09.201Z,99.90
2019-05-01T02:41:42.559Z,99.90
2019-05-01T02:44:21.893Z,99.90
2019-05-01T02:46:53.749Z,99.90
2019-05-01T02:49:32.522Z,99.90
2019-05-01T02:52:03.634Z,99.90
2019-05-01T02:54:36.387Z,99.90
2019-05-01T02:57:11.594Z,99.90
2019-05-01T02:59:45.483Z,99.90
2019-05-01T03:02:16.616Z,99.90
2019-05-01T03:04:46.880Z,99.90
2019-05-01T03:07:17.431Z,99.90
2019-05-01T03:09:48.010Z,99.90
2019-05-01T03:12:19.906Z,99.90
2019-05-01T03:14:51.914Z,99.90
2019-05-01T03:17:45.046Z,99.90
2019-05-01T03:20:24.751Z,99.90
2019-05-01T03:23:16.282Z,99.90
2019-05-01T03:25:46.891Z,99.90
2019-05-01T03:28:16.779Z,99.90
2019-05-01T03:30:46.930Z,99.90
2019-05-01T03:33:16.818Z,99.90
2019-05-01T03:35:46.749Z,99.90
2019-05-01T03:38:17.157Z,99.90
2019-05-01T03:40:47.250Z,99.90
2019-05-01T03:43:17.240Z,99.90
2019-05-01T03:45:47.189Z,99.90
2019-05-01T03:48:17.189Z,99.90
2019-05-01T03:50:47.734Z,99.90
2019-05-01T03:53:18.485Z,99.90
2019-05-01T03:55:48.751Z,99.90
2019-05-01T03:58:19.153Z,99.90
2019-05-01T04:01:03.843Z,99.90
2019-05-01T04:06:09.360Z,99.90
2019-05-01T04:08:39.503Z,99.90
2019-05-01T04:11:09.930Z,99.90
2019-05-01T04:13:40.301Z,99.90
2019-05-01T04:16:11.465Z,99.90
2019-05-01T04:18:41.785Z,99.90
2019-05-01T04:21:12.002Z,99.90
2019-05-01T04:23:43.437Z,99.90
2019-05-01T04:26:13.562Z,99.90
2019-05-01T04:29:01.322Z,99.90
2019-05-01T04:31:44.788Z,99.90
2019-05-01T04:34:21.728Z,99.90
2019-05-01T04:36:54.328Z,99.90
2019-05-01T04:39:24.406Z,99.90
2019-05-01T04:41:54.684Z,99.90
2019-05-01T04:44:24.687Z,99.90
2019-05-01T04:46:54.687Z,99.90
2019-05-01T04:49:24.578Z,99.90
2019-05-01T04:51:54.477Z,99.90
2019-05-01T04:54:24.759Z,99.90
2019-05-01T04:56:54.752Z,99.90
2019-05-01T04:59:24.731Z,99.90
2019-05-01T05:02:00.373Z,99.90
2019-05-01T05:04:30.823Z,99.90
2019-05-01T05:07:01.333Z,99.90
2019-05-01T05:09:44.914Z,99.90
2019-05-01T05:12:21.937Z,99.90
2019-05-01T05:14:56.073Z,99.90
2019-05-01T05:17:26.683Z,99.90
2019-05-01T05:19:56.874Z,99.90
2019-05-01T05:22:27.033Z,99.90
2019-05-01T05:24:56.940Z,99.90
2019-05-01T05:27:27.973Z,99.90
2019-05-01T05:29:58.602Z,99.90
2019-05-01T05:32:30.178Z,99.90
2019-05-01T05:35:01.158Z,99.90
2019-05-01T05:37:38.246Z,99.90
2019-05-01T05:40:08.332Z,99.90
2019-05-01T05:42:38.433Z,99.90
2019-05-01T05:45:08.499Z,99.90
2019-05-01T05:47:38.498Z,99.90
2019-05-01T05:50:10.011Z,99.90
2019-05-01T05:52:48.075Z,99.90
2019-05-01T05:55:36.785Z,99.90
2019-05-01T05:58:30.008Z,99.90
2019-05-01T06:01:20.358Z,99.90
2019-05-01T06:04:12.214Z,99.90
2019-05-01T06:06:53.462Z,99.90
2019-05-01T06:09:30.576Z,99.90
2019-05-01T06:12:14.946Z,99.90
2019-05-01T06:15:06.439Z,99.90
2019-05-01T06:17:45.577Z,99.90
2019-05-01T06:20:47.923Z,99.90
2019-05-01T06:23:44.990Z,99.90
2019-05-01T06:26:31.907Z,99.90
2019-05-01T06:29:02.337Z,99.90
2019-05-01T06:31:32.876Z,99.90
2019-05-01T06:34:02.776Z,99.90
2019-05-01T06:36:33.166Z,99.90
2019-05-01T06:39:06.844Z,99.90
2019-05-01T06:41:44.266Z,99.90
2019-05-01T06:44:33.516Z,99.90
2019-05-01T06:47:26.669Z,99.90
2019-05-01T06:50:08.054Z,99.90
2019-05-01T06:52:39.208Z,99.90
2019-05-01T06:55:09.030Z,99.90
2019-05-01T06:57:43.805Z,99.90
2019-05-01T07:00:16.625Z,99.90
2019-05-01T07:02:49.140Z,99.90
2019-05-01T07:05:20.684Z,99.90
2019-05-01T07:07:53.566Z,99.90
2019-05-01T07:10:31.582Z,99.90
2019-05-01T07:13:04.906Z,99.90
2019-05-01T07:15:33.426Z,99.90
2019-05-01T07:18:03.630Z,99.90
2019-05-01T07:20:53.259Z,99.90
2019-05-01T07:23:23.868Z,99.90
2019-05-01T07:25:55.085Z,99.90
2019-05-01T07:28:28.850Z,99.90
2019-05-01T07:31:05.316Z,99.90
2019-05-01T07:33:35.788Z,99.90
2019-05-01T07:36:07.555Z,98.60
2019-05-01T07:38:38.860Z,97.20
2019-05-01T07:41:12.408Z,98.20
2019-05-01T07:44:00.875Z,92.50
2019-05-01T07:46:48.781Z,92.50
2019-05-01T07:49:18.867Z,95.20
2019-05-01T07:51:52.979Z,92.30
2019-05-01T07:54:23.823Z,91.60
2019-05-01T07:56:54.305Z,90.60
2019-05-01T07:59:27.566Z,84.70
2019-05-01T08:02:00.397Z,81.30
2019-05-01T08:04:37.527Z,78.80
2019-05-01T08:07:02.251Z,81.40
2019-05-01T08:09:32.055Z,76.60
2019-05-01T08:12:01.875Z,75.30
2019-05-01T08:14:31.661Z,79.40
2019-05-01T08:17:01.571Z,76.50
2019-05-01T08:19:41.478Z,77.90
2019-05-01T08:22:20.183Z,84.50
2019-05-01T08:24:53.866Z,79.60
2019-05-01T08:27:40.768Z,78.50
2019-05-01T08:30:28.537Z,72.70
2019-05-01T08:33:26.326Z,71.60
2019-05-01T08:35:57.393Z,73.70
2019-05-01T08:38:29.820Z,77.00
2019-05-01T08:40:58.880Z,67.50
2019-05-01T08:43:28.713Z,66.90
2019-05-01T08:46:20.773Z,67.90
2019-05-01T08:48:55.310Z,66.70
2019-05-01T08:51:25.578Z,74.50
2019-05-01T08:53:57.881Z,65.60
2019-05-01T08:56:26.977Z,70.30
2019-05-01T08:58:56.994Z,68.00
2019-05-01T09:01:27.103Z,73.40
2019-05-01T09:03:56.944Z,69.60
2019-05-01T09:06:34.581Z,69.00
2019-05-01T09:09:02.986Z,66.20
2019-05-01T09:11:36.191Z,64.90
2019-05-01T09:14:05.944Z,69.40
2019-05-01T09:16:35.887Z,69.70
2019-05-01T09:19:05.841Z,73.40
2019-05-01T09:21:37.821Z,73.00
2019-05-01T09:24:07.927Z,67.90
2019-05-01T09:26:50.125Z,63.90
2019-05-01T09:29:23.967Z,65.50
2019-05-01T09:31:53.889Z,65.50
2019-05-01T09:34:23.794Z,67.20
2019-05-01T09:36:53.614Z,69.60
2019-05-01T09:39:24.320Z,60.80
2019-05-01T09:41:54.170Z,59.90
2019-05-01T09:44:24.116Z,56.60
2019-05-01T09:46:54.306Z,58.70
2019-05-01T09:49:24.172Z,58.70
2019-05-01T09:52:23.519Z,60.80
2019-05-01T09:54:56.004Z,67.50
2019-05-01T09:57:26.061Z,69.10
2019-05-01T09:59:56.210Z,64.20
2019-05-01T10:02:26.219Z,63.00
2019-05-01T10:04:56.113Z,58.40
2019-05-01T10:07:29.009Z,55.20
2019-05-01T10:09:59.845Z,48.60
2019-05-01T10:12:29.888Z,47.80
2019-05-01T10:14:59.843Z,50.30
2019-05-01T10:17:29.998Z,53.90
2019-05-01T10:20:03.564Z,58.70
2019-05-01T10:22:37.585Z,56.30
2019-05-01T10:25:08.537Z,54.00
2019-05-01T10:27:39.152Z,50.30
2019-05-01T10:30:43.226Z,54.40
2019-05-01T10:33:17.222Z,57.60
2019-05-01T10:36:20.641Z,59.50
2019-05-01T10:38:50.464Z,62.80
2019-05-01T10:41:20.308Z,58.70
2019-05-01T10:43:50.302Z,59.20
2019-05-01T10:46:20.301Z,54.10
2019-05-01T10:48:50.241Z,52.20
2019-05-01T10:51:20.237Z,52.30
2019-05-01T10:53:50.264Z,57.20
2019-05-01T10:56:23.234Z,51.70
2019-05-01T10:58:53.215Z,54.50
2019-05-01T11:01:31.663Z,57.10
2019-05-01T11:04:01.963Z,56.50
2019-05-01T11:06:31.961Z,56.10
2019-05-01T11:09:01.995Z,58.40
2019-05-01T11:11:33.181Z,57.30
2019-05-01T11:14:03.085Z,53.00
2019-05-01T11:16:32.890Z,53.60
2019-05-01T11:19:02.707Z,58.00
2019-05-01T11:21:32.525Z,56.60
2019-05-01T11:24:02.388Z,51.90
2019-05-01T11:26:32.497Z,55.00
2019-05-01T11:29:02.371Z,55.30
2019-05-01T11:31:46.377Z,52.00
2019-05-01T11:34:50.157Z,53.40
2019-05-01T11:37:47.896Z,54.90
2019-05-01T11:40:28.981Z,55.40
2019-05-01T11:42:58.802Z,58.60
2019-05-01T11:45:28.988Z,55.60
2019-05-01T11:47:58.998Z,56.00
2019-05-01T11:50:28.833Z,57.00
2019-05-01T11:52:58.619Z,59.30
2019-05-01T11:55:28.582Z,58.80
2019-05-01T11:57:58.361Z,53.10
2019-05-01T12:00:28.337Z,48.00
2019-05-01T12:02:58.426Z,49.90
2019-05-01T12:05:28.427Z,53.20
2019-05-01T12:07:58.590Z,51.90
2019-05-01T12:10:28.452Z,54.00
2019-05-01T12:12:58.305Z,54.50
2019-05-01T12:15:28.172Z,57.80
2019-05-01T12:17:58.137Z,62.70
2019-05-01T12:20:28.023Z,55.70
2019-05-01T12:22:57.840Z,53.30
2019-05-01T12:25:27.651Z,56.60
2019-05-01T12:27:57.508Z,57.00
2019-05-01T12:30:27.734Z,55.60
2019-05-01T12:32:57.746Z,54.00
2019-05-01T12:35:27.614Z,55.20
2019-05-01T12:38:00.481Z,53.50
2019-05-01T12:40:30.382Z,53.80
2019-05-01T12:43:00.412Z,59.20
2019-05-01T12:45:30.383Z,61.00
2019-05-01T12:48:01.714Z,57.90
2019-05-01T12:50:31.610Z,57.30
2019-05-01T12:53:18.984Z,57.00
2019-05-01T12:56:16.725Z,59.10
2019-05-01T12:58:48.232Z,59.30
2019-05-01T13:01:18.107Z,58.20
2019-05-01T13:03:47.915Z,55.10
2019-05-01T13:06:17.749Z,55.20
2019-05-01T13:08:47.945Z,55.60
2019-05-01T13:11:18.057Z,58.30
2019-05-01T13:13:47.781Z,60.60
2019-05-01T13:16:18.054Z,62.20
2019-05-01T13:18:47.873Z,64.00
2019-05-01T13:21:17.760Z,61.80
2019-05-01T13:23:47.904Z,59.70
2019-05-01T13:26:29.767Z,58.90
2019-05-01T13:29:07.465Z,58.60
2019-05-01T13:32:05.635Z,61.40
2019-05-01T13:34:35.779Z,61.10
2019-05-01T13:37:05.686Z,62.70
2019-05-01T13:39:35.538Z,62.00
2019-05-01T13:42:08.961Z,63.00
2019-05-01T13:44:38.778Z,66.40
2019-05-01T13:47:08.605Z,67.10
2019-05-01T13:49:38.425Z,63.40
2019-05-01T13:52:08.372Z,66.50
2019-05-01T13:54:38.402Z,67.10
2019-05-01T13:57:08.830Z,62.10
2019-05-01T13:59:39.001Z,68.30
2019-05-01T14:02:09.231Z,67.60
2019-05-01T14:04:40.585Z,63.70
2019-05-01T14:07:16.834Z,63.30
2019-05-01T14:09:42.910Z,66.10
2019-05-01T14:12:12.934Z,67.10
2019-05-01T14:14:42.826Z,66.20
2019-05-01T14:17:12.753Z,66.20
2019-05-01T14:19:45.497Z,68.00
2019-05-01T14:22:37.254Z,68.60
2019-05-01T14:25:08.510Z,65.40
2019-05-01T14:27:38.401Z,70.80
2019-05-01T14:30:08.928Z,70.80
2019-05-01T14:32:38.902Z,72.70
2019-05-01T14:35:09.101Z,68.10
2019-05-01T14:37:38.988Z,64.80
2019-05-01T14:40:08.997Z,62.20
2019-05-01T14:42:38.916Z,65.20
2019-05-01T14:45:10.570Z,64.80
2019-05-01T14:47:40.401Z,62.70
2019-05-01T14:50:12.185Z,64.60
2019-05-01T14:52:41.935Z,67.80
2019-05-01T14:55:11.949Z,66.60
2019-05-01T14:57:41.746Z,68.40
2019-05-01T15:00:12.706Z,68.90
2019-05-01T15:02:42.554Z,69.60
2019-05-01T15:05:12.528Z,69.70
2019-05-01T15:07:44.052Z,74.70
2019-05-01T15:10:14.130Z,71.40
2019-05-01T15:12:45.881Z,70.40
2019-05-01T15:15:25.869Z,67.50
2019-05-01T15:18:03.089Z,69.80
2019-05-01T15:20:32.849Z,70.00
2019-05-01T15:23:02.697Z,71.10
2019-05-01T15:25:32.668Z,69.00
2019-05-01T15:28:02.764Z,69.80
2019-05-01T15:30:32.935Z,69.10
2019-05-01T15:33:02.913Z,70.00
2019-05-01T15:35:32.966Z,66.20
2019-05-01T15:38:03.401Z,65.00
2019-05-01T15:40:42.007Z,64.20
2019-05-01T15:43:29.310Z,65.90
2019-05-01T15:45:59.205Z,67.80
2019-05-01T15:48:28.954Z,67.00
2019-05-01T15:50:59.085Z,67.70
2019-05-01T15:53:28.867Z,68.90
2019-05-01T15:55:59.645Z,68.10
2019-05-01T15:58:29.600Z,69.70
2019-05-01T16:00:59.361Z,68.60
2019-05-01T16:03:29.461Z,67.40
2019-05-01T16:06:00.377Z,69.50
2019-05-01T16:08:30.261Z,69.70
2019-05-01T16:11:09.445Z,69.70
2019-05-01T16:13:39.261Z,70.40
2019-05-01T16:16:09.249Z,73.30
2019-05-01T16:18:38.998Z,74.70
2019-05-01T16:21:10.873Z,74.20
2019-05-01T16:23:41.099Z,73.60
2019-05-01T16:26:14.113Z,76.70
2019-05-01T16:28:44.574Z,76.90
2019-05-01T16:31:14.430Z,75.10
2019-05-01T16:33:44.317Z,74.20
2019-05-01T16:36:14.162Z,74.10
2019-05-01T16:38:54.891Z,75.40
2019-05-01T16:41:27.041Z,76.70
2019-05-01T16:43:56.667Z,77.20
2019-05-01T16:46:26.568Z,77.90
2019-05-01T16:48:57.444Z,78.50
2019-05-01T16:51:27.404Z,79.40
2019-05-01T16:53:58.160Z,79.60
2019-05-01T16:56:28.016Z,80.40
2019-05-01T16:58:58.123Z,81.00
2019-05-01T17:01:52.206Z,80.00
2019-05-01T17:04:41.318Z,81.30
2019-05-01T17:07:30.290Z,82.30
2019-05-01T17:10:20.050Z,84.70
2019-05-01T17:12:51.839Z,85.60
2019-05-01T17:15:43.610Z,87.60
2019-05-01T17:18:14.108Z,89.60
2019-05-01T17:20:44.120Z,91.50
2019-05-01T17:23:14.037Z,92.50
2019-05-01T17:25:44.318Z,92.50
2019-05-01T17:28:14.143Z,92.10
2019-05-01T17:30:47.292Z,93.20
2019-05-01T17:33:20.640Z,94.20
2019-05-01T17:35:48.960Z,95.00
2019-05-01T17:38:19.000Z,95.30
2019-05-01T17:40:51.859Z,95.70
2019-05-01T17:43:20.494Z,96.50
2019-05-01T17:45:52.105Z,97.60
2019-05-01T17:48:22.061Z,98.00
2019-05-01T17:50:55.128Z,97.60
2019-05-01T17:53:24.741Z,99.40
2019-05-01T17:55:54.813Z,99.40
2019-05-01T17:58:24.799Z,99.90
2019-05-01T18:01:13.972Z,99.90
2019-05-01T18:04:12.152Z,99.90
2019-05-01T18:06:46.633Z,99.90
2019-05-01T18:09:16.118Z,99.90
2019-05-01T18:11:52.028Z,99.90
2019-05-01T18:14:19.061Z,99.90
2019-05-01T18:16:48.883Z,99.90
2019-05-01T18:19:18.823Z,99.90
2019-05-01T18:21:55.757Z,99.90
2019-05-01T18:24:44.026Z,99.90
2019-05-01T18:27:36.106Z,99.90
2019-05-01T18:30:08.893Z,99.90
2019-05-01T18:32:41.597Z,99.90
2019-05-01T18:35:16.128Z,99.90
2019-05-01T18:38:17.398Z,99.90
2019-05-01T18:40:54.039Z,99.90
2019-05-01T18:43:26.917Z,99.90
2019-05-01T18:45:57.163Z,99.90
2019-05-01T18:48:27.349Z,99.90
2019-05-01T18:50:57.267Z,99.90
2019-05-01T18:53:27.152Z,99.90
2019-05-01T18:56:01.384Z,99.90
2019-05-01T18:58:28.531Z,99.90
2019-05-01T19:01:04.095Z,99.90
2019-05-01T19:03:31.478Z,99.90
2019-05-01T19:06:01.431Z,99.90
2019-05-01T19:08:31.312Z,99.90
2019-05-01T19:11:12.358Z,99.90
2019-05-01T19:13:33.572Z,99.90
2019-05-01T19:16:07.934Z,99.90
2019-05-01T19:18:34.966Z,99.90
2019-05-01T19:21:04.945Z,99.90
2019-05-01T19:23:35.334Z,99.90
2019-05-01T19:26:06.794Z,99.90
2019-05-01T19:28:36.750Z,99.90
2019-05-01T19:31:07.763Z,99.90
2019-05-01T19:33:37.674Z,99.90
2019-05-01T19:36:08.694Z,99.90
2019-05-01T19:38:39.297Z,99.90
2019-05-01T19:41:14.127Z,99.90
2019-05-01T19:43:42.163Z,99.90
2019-05-01T19:46:13.217Z,99.90
2019-05-01T19:48:45.430Z,99.90
2019-05-01T19:51:19.162Z,99.90
2019-05-01T19:53:51.905Z,99.90
2019-05-01T19:56:21.398Z,99.90
2019-05-01T19:58:52.476Z,99.90
2019-05-01T20:01:22.588Z,99.90
2019-05-01T20:03:52.628Z,99.90
2019-05-01T20:06:22.671Z,99.90
2019-05-01T20:08:52.679Z,99.90
2019-05-01T20:11:22.597Z,99.90
2019-05-01T20:13:52.497Z,99.90
2019-05-01T20:16:23.253Z,99.90
2019-05-01T20:18:53.114Z,99.90
2019-05-01T20:21:23.321Z,99.90
2019-05-01T20:23:53.225Z,99.90
2019-05-01T20:26:26.840Z,99.90
2019-05-01T20:28:54.751Z,99.90
2019-05-01T20:31:25.792Z,99.90
2019-05-01T20:33:58.794Z,99.90
2019-05-01T20:36:29.149Z,99.90
2019-05-01T20:38:58.923Z,99.90
2019-05-01T20:41:28.838Z,99.90
2019-05-01T20:43:58.620Z,99.90
2019-05-01T20:46:28.878Z,99.90
2019-05-01T20:49:01.422Z,99.90
2019-05-01T20:51:30.449Z,99.90
2019-05-01T20:54:00.722Z,99.90
2019-05-01T20:56:45.357Z,99.90
2019-05-01T20:59:15.383Z,99.90
2019-05-01T21:01:45.288Z,99.90
2019-05-01T21:04:40.149Z,99.90
2019-05-01T21:07:19.868Z,99.90
2019-05-01T21:09:57.011Z,99.90
2019-05-01T21:12:20.081Z,99.90
2019-05-01T21:14:50.958Z,99.90
2019-05-01T21:17:20.886Z,99.90
2019-05-01T21:19:50.644Z,99.90
2019-05-01T21:22:20.529Z,99.90
2019-05-01T21:24:50.597Z,99.90
2019-05-01T21:27:20.345Z,99.90
2019-05-01T21:29:50.413Z,99.90
2019-05-01T21:32:23.608Z,99.90
2019-05-01T21:34:53.708Z,99.90
2019-05-01T21:37:23.551Z,99.90
2019-05-01T21:39:53.801Z,99.90
2019-05-01T21:42:24.504Z,99.90
2019-05-01T21:44:54.558Z,99.90
2019-05-01T21:47:24.312Z,99.90
2019-05-01T21:49:54.161Z,99.90
2019-05-01T21:52:26.835Z,99.90
2019-05-01T21:54:57.025Z,99.90
2019-05-01T21:57:29.947Z,99.90
2019-05-01T21:59:58.585Z,99.90
2019-05-01T22:02:28.481Z,99.90
2019-05-01T22:04:58.402Z,99.90
2019-05-01T22:07:33.395Z,99.90
2019-05-01T22:10:03.184Z,99.90
2019-05-01T22:12:33.110Z,99.90
2019-05-01T22:15:10.948Z,99.90
2019-05-01T22:17:51.338Z,99.90
2019-05-01T22:20:28.126Z,99.90
2019-05-01T22:23:02.461Z,99.90
2019-05-01T22:25:36.322Z,99.90
2019-05-01T22:28:31.685Z,99.90
2019-05-01T22:31:21.813Z,99.90
2019-05-01T22:33:55.805Z,99.90
2019-05-01T22:36:25.592Z,99.90
2019-05-01T22:38:55.480Z,99.90
2019-05-01T22:41:25.306Z,99.90
2019-05-01T22:43:55.116Z,99.90
2019-05-01T22:46:28.568Z,99.90
2019-05-01T22:48:58.449Z,99.90
2019-05-01T22:51:28.390Z,99.90
2019-05-01T22:53:58.125Z,99.90
2019-05-01T22:56:27.949Z,99.90
2019-05-01T22:58:57.681Z,99.90
2019-05-01T23:01:27.665Z,99.90
2019-05-01T23:04:03.029Z,99.90
2019-05-01T23:06:32.855Z,99.90
2019-05-01T23:09:02.914Z,99.90
2019-05-01T23:11:34.910Z,99.90
2019-05-01T23:14:04.869Z,99.90
2019-05-01T23:16:40.145Z,99.90
2019-05-01T23:19:09.957Z,99.90
2019-05-01T23:21:39.803Z,99.90
2019-05-01T23:24:09.693Z,99.90
2019-05-01T23:26:39.501Z,99.90
2019-05-01T23:29:09.321Z,99.90
2019-05-01T23:31:39.281Z,99.90
2019-05-01T23:34:09.041Z,99.90
2019-05-01T23:36:38.913Z,99.90
2019-05-01T23:39:09.081Z,99.90
2019-05-01T23:41:45.719Z,99.90
2019-05-01T23:44:10.401Z,99.90
2019-05-01T23:46:40.221Z,99.90
2019-05-01T23:49:10.283Z,99.90
2019-05-01T23:51:40.273Z,99.90
2019-05-01T23:54:10.181Z,99.90
2019-05-01T23:56:40.075Z,99.90
2019-05-01T23:59:09.997Z,99.90
